Time;durP1;ratioP1;P1;durP2;ratioP2;P2;SDS_P1;SDS_P2;PMS_P1;PMS_P2;Temp;Humidity;BMP_temperature;BMP_pressure;BME280_temperature;BME280_humidity;BME280_pressure;Samples;Min_cycle;Max_cycle;Signal;HPM_P1;HPM_P2
2022/07/10 00:00:26;;;;;;;8.02;1.50;;;13.30;99.90;;;;;;5031957;28;20045;-47
2022/07/10 00:02:52;;;;;;;3.97;1.10;;;13.30;99.90;;;;;;5031443;28;20111;-50
2022/07/10 00:05:19;;;;;;;8.60;2.08;;;13.30;99.90;;;;;;5031694;28;20120;-47
2022/07/10 00:07:45;;;;;;;5.85;1.70;;;13.30;99.90;;;;;;5025924;28;20499;-47
2022/07/10 00:10:11;;;;;;;5.80;1.50;;;13.30;99.90;;;;;;5030722;28;20462;-47
2022/07/10 00:12:37;;;;;;;5.30;1.80;;;13.30;99.90;;;;;;5027471;28;20037;-47
2022/07/10 00:15:04;;;;;;;7.03;1.30;;;13.40;99.90;;;;;;5023518;28;20538;-48
2022/07/10 00:17:30;;;;;;;3.72;1.30;;;13.40;99.90;;;;;;5026122;28;20430;-46
2022/07/10 00:19:56;;;;;;;6.32;1.75;;;13.30;99.90;;;;;;5025152;28;20048;-48
2022/07/10 00:22:22;;;;;;;7.70;1.83;;;13.30;99.90;;;;;;5029739;28;20041;-49
2022/07/10 00:24:47;;;;;;;6.43;1.35;;;13.30;99.90;;;;;;5028506;28;20490;-49
2022/07/10 00:27:13;;;;;;;6.35;1.38;;;13.40;99.90;;;;;;5022565;28;20041;-50
2022/07/10 00:29:39;;;;;;;5.65;1.67;;;13.40;99.90;;;;;;5028594;28;20414;-45
2022/07/10 00:32:04;;;;;;;8.70;1.52;;;13.40;99.90;;;;;;5023988;28;20056;-48
2022/07/10 00:34:30;;;;;;;5.00;1.73;;;13.40;99.90;;;;;;5021311;28;20199;-50
2022/07/10 00:36:55;;;;;;;9.10;1.70;;;13.40;99.90;;;;;;5022137;28;20487;-48
2022/07/10 00:39:21;;;;;;;5.80;1.90;;;13.40;99.90;;;;;;5023324;28;20065;-50
2022/07/10 00:41:46;;;;;;;8.60;1.92;;;13.30;99.90;;;;;;5020378;28;20052;-51
2022/07/10 00:44:12;;;;;;;5.50;1.50;;;13.30;99.90;;;;;;5023512;28;20467;-50
2022/07/10 00:46:38;;;;;;;5.65;1.25;;;13.30;99.90;;;;;;5025204;28;20095;-49
2022/07/10 00:49:03;;;;;;;8.45;2.03;;;13.30;99.90;;;;;;5026756;28;20120;-51
2022/07/10 00:51:30;;;;;;;7.05;1.80;;;13.30;99.90;;;;;;5025704;28;20056;-51
2022/07/10 00:53:56;;;;;;;8.27;1.50;;;13.40;99.90;;;;;;5029010;28;20057;-50
2022/07/10 00:56:27;;;;;;;8.27;1.63;;;13.40;99.90;;;;;;5018627;28;20046;-51
2022/07/10 00:58:53;;;;;;;6.38;1.75;;;13.40;99.90;;;;;;5020345;28;20103;-48
2022/07/10 01:01:19;;;;;;;9.43;1.98;;;13.40;99.90;;;;;;5021003;28;20064;-50
2022/07/10 01:03:46;;;;;;;5.10;1.38;;;13.40;99.90;;;;;;5025486;28;20402;-49
2022/07/10 01:06:12;;;;;;;7.57;1.58;;;13.40;99.90;;;;;;5020433;28;20041;-50
2022/07/10 01:08:38;;;;;;;6.13;1.42;;;13.40;99.90;;;;;;5021768;28;20091;-49
2022/07/10 01:11:04;;;;;;;9.43;1.80;;;13.40;99.90;;;;;;5026787;28;20137;-48
2022/07/10 01:13:29;;;;;;;7.90;1.48;;;13.50;99.90;;;;;;5026868;28;20521;-48
2022/07/10 01:15:55;;;;;;;9.93;1.52;;;13.50;99.90;;;;;;5024696;28;20545;-49
2022/07/10 01:18:22;;;;;;;7.70;1.45;;;13.40;99.90;;;;;;5023199;28;20056;-47
2022/07/10 01:20:55;;;;;;;6.90;1.52;;;13.40;99.90;;;;;;5029988;28;20112;-50
2022/07/10 01:23:21;;;;;;;8.02;1.88;;;13.40;99.90;;;;;;5025443;28;20049;-50
2022/07/10 01:25:50;;;;;;;8.50;1.77;;;13.40;99.90;;;;;;5024441;28;20046;-47
2022/07/10 01:28:17;;;;;;;7.20;1.67;;;13.40;99.90;;;;;;5026083;28;20049;-47
2022/07/10 01:30:43;;;;;;;8.35;1.50;;;13.40;99.90;;;;;;5027132;28;20042;-51
2022/07/10 01:33:09;;;;;;;6.40;1.20;;;13.40;99.90;;;;;;5023138;28;20046;-50
2022/07/10 01:35:35;;;;;;;13.05;1.98;;;13.30;99.90;;;;;;5024591;28;20045;-49
2022/07/10 01:38:00;;;;;;;9.05;1.63;;;13.30;99.90;;;;;;5024467;28;20046;-47
2022/07/10 01:40:26;;;;;;;4.78;1.50;;;13.30;99.90;;;;;;5026820;28;20415;-50
2022/07/10 01:42:52;;;;;;;7.80;1.80;;;13.20;99.90;;;;;;5023912;28;20037;-47
2022/07/10 01:45:20;;;;;;;6.47;1.65;;;13.20;99.90;;;;;;5026390;28;20041;-49
2022/07/10 01:47:46;;;;;;;9.50;2.00;;;13.10;99.90;;;;;;5028778;28;20064;-47
2022/07/10 01:50:12;;;;;;;8.15;1.58;;;13.10;99.90;;;;;;5046376;22;20068;-50
2022/07/10 01:52:37;;;;;;;5.93;1.50;;;13.10;99.90;;;;;;5070498;22;20041;-47
2022/07/10 01:55:04;;;;;;;8.32;1.77;;;13.10;99.90;;;;;;5041496;28;20052;-46
2022/07/10 01:57:29;;;;;;;10.75;1.90;;;13.00;99.90;;;;;;5051122;28;20045;-50
2022/07/10 01:59:55;;;;;;;6.68;1.38;;;13.10;99.90;;;;;;5051360;28;20570;-46
2022/07/10 02:02:21;;;;;;;6.50;1.67;;;13.10;99.90;;;;;;5053407;28;20032;-51
2022/07/10 02:04:47;;;;;;;6.65;1.95;;;13.10;99.90;;;;;;5051377;28;20040;-50
2022/07/10 02:07:14;;;;;;;5.93;1.67;;;13.10;99.90;;;;;;5051411;28;20125;-48
2022/07/10 02:09:41;;;;;;;10.20;1.85;;;13.10;99.90;;;;;;5051590;28;20501;-46
2022/07/10 02:12:08;;;;;;;7.75;1.85;;;13.10;99.90;;;;;;5050859;28;20045;-47
2022/07/10 02:14:34;;;;;;;7.38;2.03;;;13.00;99.90;;;;;;5041925;28;20391;-44
2022/07/10 02:17:00;;;;;;;9.68;1.73;;;13.00;99.90;;;;;;5050100;28;20037;-46
2022/07/10 02:19:26;;;;;;;8.65;2.10;;;12.90;99.90;;;;;;5048224;28;20048;-47
2022/07/10 02:21:51;;;;;;;10.35;1.92;;;12.80;99.90;;;;;;5050863;28;20049;-49
2022/07/10 02:24:17;;;;;;;8.10;1.48;;;12.90;99.90;;;;;;5050094;28;20048;-48
2022/07/10 02:26:43;;;;;;;6.32;1.58;;;12.70;99.90;;;;;;5051095;28;20414;-46
2022/07/10 02:29:09;;;;;;;7.68;1.70;;;12.70;99.90;;;;;;5050707;28;20116;-45
2022/07/10 02:31:40;;;;;;;5.57;1.95;;;12.70;99.90;;;;;;5048789;28;20041;-45
2022/07/10 02:34:09;;;;;;;8.13;1.52;;;12.60;99.90;;;;;;5048890;28;20510;-45
2022/07/10 02:36:36;;;;;;;6.63;1.42;;;12.50;99.90;;;;;;5049362;28;20049;-46
2022/07/10 02:39:02;;;;;;;6.60;1.50;;;12.50;99.90;;;;;;5050050;28;20555;-49
2022/07/10 02:41:27;;;;;;;6.03;1.77;;;12.50;99.90;;;;;;5051085;28;20097;-47
2022/07/10 02:43:53;;;;;;;9.45;1.90;;;12.40;99.90;;;;;;5050027;28;20045;-47
2022/07/10 02:46:18;;;;;;;5.63;1.85;;;12.40;99.90;;;;;;5051480;28;20037;-46
2022/07/10 02:48:44;;;;;;;6.78;1.50;;;12.40;99.90;;;;;;5048371;28;20069;-46
2022/07/10 02:51:10;;;;;;;8.10;1.75;;;12.30;99.90;;;;;;5046028;28;20057;-47
2022/07/10 02:53:35;;;;;;;8.52;2.00;;;12.30;99.90;;;;;;5046654;28;20049;-48
2022/07/10 02:56:01;;;;;;;7.53;1.45;;;;;;;;;;5047376;28;20139;-48
2022/07/10 02:58:27;;;;;;;9.70;1.77;;;12.20;99.90;;;;;;5048780;28;20083;-48
2022/07/10 03:00:53;;;;;;;8.18;2.08;;;12.20;99.90;;;;;;5046297;28;20086;-45
2022/07/10 03:03:18;;;;;;;4.20;1.45;;;12.20;99.90;;;;;;5049926;28;20970;-45
2022/07/10 03:05:45;;;;;;;10.50;2.30;;;12.20;99.90;;;;;;5048542;28;20128;-47
2022/07/10 03:08:11;;;;;;;6.30;1.40;;;12.20;99.90;;;;;;5045282;28;20038;-47
2022/07/10 03:10:36;;;;;;;8.05;1.80;;;12.20;99.90;;;;;;5048230;28;20040;-46
2022/07/10 03:13:02;;;;;;;9.70;1.70;;;12.20;99.90;;;;;;5050260;28;20198;-49
2022/07/10 03:15:28;;;;;;;10.35;1.85;;;11.90;99.90;;;;;;5044295;28;20112;-46
2022/07/10 03:17:53;;;;;;;4.82;1.55;;;12.00;99.90;;;;;;5049707;28;20127;-46
2022/07/10 03:20:19;;;;;;;9.48;1.75;;;12.10;99.90;;;;;;5043774;28;20044;-48
2022/07/10 03:22:44;;;;;;;10.50;1.70;;;12.10;99.90;;;;;;5045808;28;20148;-46
2022/07/10 03:25:10;;;;;;;11.82;1.60;;;12.00;99.90;;;;;;5048867;28;20048;-46
2022/07/10 03:27:36;;;;;;;7.40;1.65;;;12.00;99.90;;;;;;5048598;28;20045;-47
2022/07/10 03:30:03;;;;;;;8.85;1.83;;;12.00;99.90;;;;;;5049872;28;20072;-46
2022/07/10 03:32:28;;;;;;;6.78;1.88;;;12.00;99.90;;;;;;5048569;28;20147;-45
2022/07/10 03:34:54;;;;;;;8.63;1.80;;;12.00;99.90;;;;;;5047807;28;20119;-46
2022/07/10 03:37:20;;;;;;;5.75;1.40;;;12.00;99.90;;;;;;5045482;28;20449;-46
2022/07/10 03:39:45;;;;;;;9.57;1.67;;;12.00;99.90;;;;;;5049812;28;20116;-50
2022/07/10 03:42:11;;;;;;;7.35;1.70;;;12.00;99.90;;;;;;5047127;28;20130;-47
2022/07/10 03:44:36;;;;;;;7.40;1.42;;;12.00;99.90;;;;;;5049452;28;20151;-47
2022/07/10 03:47:02;;;;;;;5.95;1.40;;;12.00;99.90;;;;;;5048986;28;20429;-46
2022/07/10 03:49:28;;;;;;;4.97;1.40;;;12.00;99.90;;;;;;5046946;28;20041;-44
2022/07/10 03:51:53;;;;;;;9.25;1.50;;;12.00;99.90;;;;;;5048166;28;20449;-47
2022/07/10 03:54:19;;;;;;;5.22;1.58;;;12.10;99.90;;;;;;5047120;28;20048;-47
2022/07/10 03:59:29;;;;;;;6.28;1.30;;;12.30;99.90;;;;;;5049529;28;20163;-46
2022/07/10 04:01:54;;;;;;;6.32;1.60;;;12.40;99.90;;;;;;5044681;28;20131;-46
2022/07/10 04:04:20;;;;;;;10.80;1.70;;;12.60;99.90;;;;;;5043402;28;20037;-49
2022/07/10 04:06:47;;;;;;;8.93;1.70;;;;;;;;;;5048130;28;20069;-46
2022/07/10 04:09:12;;;;;;;6.93;1.63;;;12.80;99.90;;;;;;5046093;28;20041;-47
2022/07/10 04:11:38;;;;;;;7.20;2.40;;;12.90;99.90;;;;;;5048857;28;20058;-44
2022/07/10 04:14:03;;;;;;;4.35;1.50;;;12.90;99.90;;;;;;5049339;28;20044;-45
2022/07/10 04:16:29;;;;;;;8.77;1.42;;;13.00;99.90;;;;;;5048959;28;20379;-47
2022/07/10 04:18:54;;;;;;;10.35;1.67;;;13.00;99.90;;;;;;5039615;28;20059;-47
2022/07/10 04:21:20;;;;;;;7.15;1.73;;;13.00;99.90;;;;;;5048322;28;20098;-49
2022/07/10 04:23:45;;;;;;;10.27;1.92;;;13.10;99.90;;;;;;5046100;28;20098;-48
2022/07/10 04:26:11;;;;;;;7.30;2.03;;;13.20;99.90;;;;;;5046853;28;20041;-44
2022/07/10 04:28:37;;;;;;;12.13;2.03;;;13.10;99.90;;;;;;5047019;28;20056;-47
2022/07/10 04:31:02;;;;;;;6.38;1.75;;;13.20;99.90;;;;;;5048560;28;20470;-47
2022/07/10 04:33:28;;;;;;;6.13;1.45;;;13.20;99.90;;;;;;5045328;28;20430;-47
2022/07/10 04:35:53;;;;;;;7.15;1.40;;;13.20;99.90;;;;;;5049836;28;20060;-45
2022/07/10 04:38:19;;;;;;;6.15;1.50;;;13.20;99.90;;;;;;5045039;28;20044;-44
2022/07/10 04:40:44;;;;;;;7.78;1.70;;;13.30;99.90;;;;;;5048561;28;20044;-45
2022/07/10 04:43:11;;;;;;;7.43;1.75;;;13.30;99.90;;;;;;5047037;28;20041;-45
2022/07/10 04:45:37;;;;;;;8.38;1.63;;;13.30;99.90;;;;;;5048697;28;20124;-45
2022/07/10 04:48:04;;;;;;;8.40;1.75;;;13.30;99.90;;;;;;5046950;28;20052;-46
2022/07/10 04:50:30;;;;;;;6.20;1.48;;;13.30;99.90;;;;;;5043767;28;20395;-47
2022/07/10 04:52:56;;;;;;;6.28;1.52;;;13.30;99.90;;;;;;5046116;28;20053;-45
2022/07/10 04:55:22;;;;;;;7.78;1.55;;;13.40;99.90;;;;;;5052677;28;20167;-46
2022/07/10 04:57:47;;;;;;;4.95;1.50;;;13.40;99.90;;;;;;5050387;28;20041;-49
2022/07/10 05:00:14;;;;;;;6.53;1.60;;;13.40;99.90;;;;;;5049339;28;20120;-50
2022/07/10 05:02:39;;;;;;;7.50;1.42;;;13.50;99.90;;;;;;5066054;28;20100;-47
2022/07/10 05:05:05;;;;;;;8.27;1.67;;;13.50;99.90;;;;;;5051719;28;20064;-50
2022/07/10 05:07:31;;;;;;;4.90;1.38;;;13.60;99.90;;;;;;5049769;28;20044;-47
2022/07/10 05:09:56;;;;;;;6.90;1.38;;;13.60;99.90;;;;;;5051923;28;20045;-49
2022/07/10 05:12:22;;;;;;;6.60;1.60;;;13.80;99.90;;;;;;5053681;28;20118;-47
2022/07/10 05:14:47;;;;;;;4.32;1.30;;;13.70;99.90;;;;;;5049565;28;20042;-46
2022/07/10 05:17:13;;;;;;;11.43;1.65;;;13.80;99.90;;;;;;5050983;28;20049;-47
2022/07/10 05:19:39;;;;;;;6.75;1.40;;;13.80;99.90;;;;;;5050704;28;20048;-47
2022/07/10 05:22:04;;;;;;;6.88;1.42;;;14.00;99.90;;;;;;5051781;28;20041;-46
2022/07/10 05:24:30;;;;;;;6.22;1.42;;;14.10;99.90;;;;;;5048380;28;20044;-45
2022/07/10 05:26:55;;;;;;;5.75;1.23;;;14.10;99.90;;;;;;5052189;28;20489;-46
2022/07/10 05:29:21;;;;;;;6.63;1.55;;;;;;;;;;5049422;28;20041;-45
2022/07/10 05:31:47;;;;;;;8.27;1.40;;;14.30;99.90;;;;;;5052151;28;20041;-46
2022/07/10 05:34:12;;;;;;;6.68;1.73;;;14.40;99.90;;;;;;5049960;28;20045;-45
2022/07/10 05:36:38;;;;;;;6.80;1.60;;;14.50;99.90;;;;;;5051521;28;20049;-48
2022/07/10 05:39:03;;;;;;;6.68;1.23;;;14.50;99.90;;;;;;5050845;28;20469;-49
2022/07/10 05:41:29;;;;;;;4.65;1.10;;;14.70;99.90;;;;;;5050169;28;20041;-44
2022/07/10 05:43:55;;;;;;;5.93;1.52;;;14.80;99.90;;;;;;5051667;28;20085;-45
2022/07/10 05:46:20;;;;;;;6.65;1.92;;;14.80;99.90;;;;;;5048216;28;20573;-45
2022/07/10 05:48:46;;;;;;;4.63;1.33;;;14.90;99.90;;;;;;5050447;28;20076;-47
2022/07/10 05:51:11;;;;;;;8.90;1.55;;;15.00;99.90;;;;;;5050752;28;20494;-45
2022/07/10 05:53:37;;;;;;;4.88;1.50;;;15.10;99.90;;;;;;5048363;28;20037;-45
2022/07/10 05:56:03;;;;;;;8.63;1.85;;;15.10;99.90;;;;;;5048992;28;20035;-45
2022/07/10 05:58:29;;;;;;;8.88;1.77;;;15.10;99.90;;;;;;5049862;28;20049;-48
2022/07/10 06:00:55;;;;;;;9.88;1.92;;;15.20;99.90;;;;;;5050628;28;20064;-47
2022/07/10 06:03:21;;;;;;;9.07;1.90;;;15.20;99.90;;;;;;5052561;28;20413;-48
2022/07/10 06:05:47;;;;;;;8.73;2.03;;;15.30;99.90;;;;;;5047403;28;20493;-46
2022/07/10 06:08:13;;;;;;;7.22;1.73;;;15.40;99.90;;;;;;5047755;28;20395;-46
2022/07/10 06:10:40;;;;;;;9.82;2.03;;;15.60;99.90;;;;;;5048998;28;20052;-45
2022/07/10 06:13:06;;;;;;;6.18;1.88;;;15.60;99.90;;;;;;5048509;28;20095;-49
2022/07/10 06:15:31;;;;;;;6.25;1.73;;;15.60;99.90;;;;;;5050158;28;20435;-46
2022/07/10 06:17:58;;;;;;;7.82;2.13;;;15.60;99.90;;;;;;5050914;28;20037;-46
2022/07/10 06:20:25;;;;;;;10.07;1.80;;;15.60;99.90;;;;;;5052540;28;20041;-49
2022/07/10 06:22:50;;;;;;;9.00;2.00;;;15.60;99.90;;;;;;5049553;28;20053;-49
2022/07/10 06:25:16;;;;;;;8.18;2.65;;;15.60;99.90;;;;;;5048438;28;20041;-45
2022/07/10 06:27:41;;;;;;;5.85;2.08;;;15.60;99.90;;;;;;5052925;28;20123;-46
2022/07/10 06:30:07;;;;;;;9.57;2.40;;;15.60;99.90;;;;;;5048052;28;20112;-46
2022/07/10 06:32:33;;;;;;;10.07;2.40;;;15.70;99.90;;;;;;5052650;28;20037;-45
2022/07/10 06:34:58;;;;;;;7.75;2.05;;;15.70;99.90;;;;;;5049932;28;20064;-46
2022/07/10 06:37:24;;;;;;;10.05;2.50;;;15.60;99.90;;;;;;5049896;28;20037;-45
2022/07/10 06:39:50;;;;;;;7.22;1.75;;;15.50;99.90;;;;;;5051152;28;20439;-45
2022/07/10 06:42:16;;;;;;;9.60;2.58;;;15.60;99.90;;;;;;5051898;28;20041;-46
2022/07/10 06:44:42;;;;;;;6.78;2.08;;;15.70;99.90;;;;;;5051220;28;20123;-45
2022/07/10 06:49:55;;;;;;;9.30;2.13;;;15.90;99.90;;;;;;5051436;28;20114;-47
2022/07/10 06:52:21;;;;;;;7.43;2.00;;;16.00;99.90;;;;;;5047912;28;20540;-47
2022/07/10 06:54:47;;;;;;;9.73;2.10;;;16.00;99.90;;;;;;5047686;28;20455;-48
2022/07/10 06:57:14;;;;;;;8.68;2.10;;;16.00;99.90;;;;;;5050515;28;20063;-47
2022/07/10 06:59:39;;;;;;;8.38;2.08;;;16.10;99.90;;;;;;5049664;28;20132;-46
2022/07/10 07:02:05;;;;;;;5.95;2.55;;;16.10;99.90;;;;;;5049614;28;20132;-46
2022/07/10 07:04:31;;;;;;;10.13;2.17;;;16.10;99.90;;;;;;5050020;28;20075;-47
2022/07/10 07:06:56;;;;;;;7.65;2.13;;;16.20;99.90;;;;;;5050916;28;20116;-47
2022/07/10 07:09:23;;;;;;;9.48;2.03;;;16.30;99.90;;;;;;5048402;28;20040;-46
2022/07/10 07:11:48;;;;;;;6.15;2.17;;;16.20;99.90;;;;;;5051202;28;20040;-48
2022/07/10 07:14:14;;;;;;;9.02;1.73;;;16.30;99.90;;;;;;5050097;28;20094;-46
2022/07/10 07:16:44;;;;;;;6.40;1.75;;;16.40;99.90;;;;;;5049401;28;20079;-47
2022/07/10 07:19:11;;;;;;;7.10;2.38;;;16.60;99.90;;;;;;5049274;28;20076;-48
2022/07/10 07:24:21;;;;;;;7.97;2.53;;;16.70;99.90;;;;;;5050296;28;20128;-46
2022/07/10 07:26:48;;;;;;;5.82;1.70;;;16.50;99.90;;;;;;5048489;28;20131;-49
2022/07/10 07:29:15;;;;;;;7.38;1.80;;;16.60;99.90;;;;;;5049943;28;20041;-50
2022/07/10 07:31:41;;;;;;;7.65;1.92;;;16.70;99.90;;;;;;5050757;28;20398;-45
2022/07/10 07:34:06;;;;;;;4.00;1.48;;;16.70;99.90;;;;;;5049849;28;20037;-45
2022/07/10 07:36:32;;;;;;;5.50;2.10;;;;;;;;;;5050454;28;20041;-46
2022/07/10 07:38:58;;;;;;;8.98;2.00;;;16.90;99.90;;;;;;5048475;28;20463;-45
2022/07/10 07:41:24;;;;;;;4.65;1.40;;;17.10;99.90;;;;;;5048813;28;20045;-45
2022/07/10 07:43:50;;;;;;;6.05;1.48;;;17.10;99.90;;;;;;5049406;28;20037;-48
2022/07/10 07:46:16;;;;;;;6.22;1.38;;;17.20;99.90;;;;;;5048373;28;20037;-46
2022/07/10 07:48:41;;;;;;;5.55;1.40;;;17.30;99.90;;;;;;5047021;28;20128;-48
2022/07/10 07:51:07;;;;;;;3.55;1.00;;;17.40;99.90;;;;;;5048321;28;20090;-48
2022/07/10 07:53:33;;;;;;;5.50;1.20;;;17.30;99.90;;;;;;5046330;28;20041;-47
2022/07/10 07:55:58;;;;;;;3.05;1.20;;;17.20;99.90;;;;;;5047285;28;20506;-46
2022/07/10 07:58:24;;;;;;;3.92;0.90;;;17.30;99.90;;;;;;5048078;28;20037;-47
2022/07/10 08:00:50;;;;;;;2.83;0.85;;;17.20;99.90;;;;;;5048192;28;20124;-46
2022/07/10 08:03:16;;;;;;;7.57;1.00;;;17.40;99.90;;;;;;5051132;28;20431;-51
2022/07/10 08:05:42;;;;;;;2.53;0.75;;;17.40;99.90;;;;;;5049559;28;20068;-46
2022/07/10 08:08:09;;;;;;;2.40;0.98;;;17.40;99.90;;;;;;5048946;28;20041;-46
2022/07/10 08:10:36;;;;;;;3.95;1.00;;;17.40;99.90;;;;;;5049175;28;20060;-46
2022/07/10 08:13:03;;;;;;;3.17;1.20;;;17.20;99.90;;;;;;5049816;28;20045;-46
2022/07/10 08:15:29;;;;;;;3.03;1.00;;;17.10;99.90;;;;;;5049817;28;20052;-48
2022/07/10 08:17:57;;;;;;;2.83;0.85;;;17.30;99.90;;;;;;5049769;28;20063;-46
2022/07/10 08:20:24;;;;;;;3.58;1.10;;;17.30;99.90;;;;;;5044934;28;20117;-46
2022/07/10 08:22:50;;;;;;;3.78;1.00;;;17.40;99.90;;;;;;5044635;28;20048;-44
2022/07/10 08:25:15;;;;;;;3.70;1.40;;;17.60;99.90;;;;;;5049169;28;20094;-50
2022/07/10 08:27:41;;;;;;;2.60;1.13;;;17.70;99.90;;;;;;5047339;28;20044;-45
2022/07/10 08:30:09;;;;;;;2.30;1.05;;;17.70;99.90;;;;;;5055218;28;20043;-45
2022/07/10 08:32:36;;;;;;;3.17;1.15;;;17.70;99.90;;;;;;5047737;28;20108;-45
2022/07/10 08:35:02;;;;;;;2.58;0.93;;;17.70;99.90;;;;;;5047684;28;20556;-45
2022/07/10 08:37:28;;;;;;;4.38;1.58;;;17.90;99.90;;;;;;5045657;28;20033;-45
2022/07/10 08:39:54;;;;;;;2.97;1.00;;;18.00;99.90;;;;;;5047023;28;20098;-45
2022/07/10 08:42:20;;;;;;;2.03;0.90;;;18.00;99.90;;;;;;5046829;28;20128;-46
2022/07/10 08:44:46;;;;;;;3.57;1.00;;;18.10;99.90;;;;;;5047184;28;20309;-46
2022/07/10 08:47:12;;;;;;;3.22;0.98;;;18.10;99.90;;;;;;5048127;28;20299;-47
2022/07/10 08:49:45;;;;;;;2.50;1.13;;;18.10;99.90;;;;;;5047004;28;20053;-45
2022/07/10 08:52:40;;;;;;;3.00;1.10;;;18.10;99.90;;;;;;5045244;28;20064;-47
2022/07/10 08:55:06;;;;;;;3.00;1.10;;;18.00;99.90;;;;;;5039127;28;20087;-46
2022/07/10 08:57:34;;;;;;;3.35;1.60;;;17.80;99.90;;;;;;5046594;28;20045;-47
2022/07/10 08:59:59;;;;;;;2.05;0.90;;;17.70;99.90;;;;;;5047124;28;20521;-45
2022/07/10 09:02:25;;;;;;;3.33;1.17;;;17.60;99.90;;;;;;5048945;28;20045;-47
2022/07/10 09:04:51;;;;;;;4.80;1.13;;;17.60;99.90;;;;;;5048162;28;20037;-46
2022/07/10 09:07:17;;;;;;;4.30;1.45;;;17.60;99.90;;;;;;5046566;28;20105;-45
2022/07/10 09:09:56;;;;;;;2.75;1.15;;;17.30;99.90;;;;;;5047109;28;20049;-45
2022/07/10 09:12:22;;;;;;;5.68;0.85;;;17.40;99.90;;;;;;5043653;28;20037;-45
2022/07/10 09:14:49;;;;;;;3.80;1.10;;;17.20;99.90;;;;;;5047476;28;20447;-46
2022/07/10 09:17:15;;;;;;;5.53;1.50;;;17.20;99.90;;;;;;5040484;28;20383;-45
2022/07/10 09:19:42;;;;;;;3.25;1.20;;;17.30;99.90;;;;;;5036992;28;20049;-46
2022/07/10 09:22:10;;;;;;;1.97;0.90;;;17.40;99.90;;;;;;5030418;28;20138;-45
2022/07/10 09:24:36;;;;;;;;;;;17.40;99.90;;;;;;5033303;28;20292;-49
2022/07/10 09:27:05;;;;;;;3.58;1.25;;;17.50;99.90;;;;;;5040679;28;20412;-45
2022/07/10 09:29:55;;;;;;;2.28;0.80;;;17.30;99.90;;;;;;5036397;28;20166;-46
2022/07/10 09:32:20;;;;;;;2.75;0.90;;;17.10;99.90;;;;;;5038510;28;20045;-49
2022/07/10 09:34:46;;;;;;;2.05;0.90;;;17.10;99.90;;;;;;5034419;28;20037;-45
2022/07/10 09:37:23;;;;;;;2.67;0.93;;;17.00;99.90;;;;;;5034332;28;21721;-48
2022/07/10 09:39:55;;;;;;;2.93;1.10;;;17.00;99.90;;;;;;5036848;28;20060;-46
2022/07/10 09:42:42;;;;;;;3.42;1.40;;;16.90;99.90;;;;;;5047270;28;20294;-47
2022/07/10 09:45:15;;;;;;;3.60;1.48;;;16.80;99.90;;;;;;5043399;28;20076;-47
2022/07/10 09:47:58;;;;;;;1.75;0.93;;;16.60;99.90;;;;;;5043445;28;20049;-48
2022/07/10 09:50:27;;;;;;;3.08;1.40;;;17.00;99.90;;;;;;5042451;28;20102;-48
2022/07/10 09:52:54;;;;;;;3.00;1.00;;;17.30;99.90;;;;;;5043711;28;20114;-47
2022/07/10 09:55:22;;;;;;;1.92;0.93;;;17.40;99.90;;;;;;5044084;28;20316;-48
2022/07/10 09:57:54;;;;;;;4.18;1.40;;;17.60;99.90;;;;;;5045487;28;20061;-47
2022/07/10 10:00:25;;;;;;;2.45;1.13;;;17.70;99.90;;;;;;5042082;28;20063;-48
2022/07/10 10:02:53;;;;;;;3.17;1.40;;;17.80;99.90;;;;;;5043197;28;20045;-47
2022/07/10 10:05:18;;;;;;;2.58;1.25;;;17.70;99.90;;;;;;5042773;28;20411;-47
2022/07/10 10:07:45;;;;;;;1.75;1.65;;;17.70;99.90;;;;;;5041653;28;20044;-46
2022/07/10 10:10:12;;;;;;;6.22;1.45;;;17.70;99.90;;;;;;5043742;28;20045;-46
2022/07/10 10:12:51;;;;;;;2.40;1.10;;;17.60;99.90;;;;;;5041244;28;20402;-46
2022/07/10 10:15:17;;;;;;;3.67;1.50;;;17.40;99.90;;;;;;5041656;28;20331;-50
2022/07/10 10:17:45;;;;;;;3.90;1.40;;;17.20;99.90;;;;;;5042083;28;20747;-47
2022/07/10 10:23:00;;;;;;;4.90;1.30;;;17.00;99.90;;;;;;5046140;28;20055;-46
2022/07/10 10:25:28;;;;;;;2.67;1.15;;;16.90;99.90;;;;;;5047236;28;20786;-46
2022/07/10 10:27:54;;;;;;;4.70;1.80;;;16.90;99.90;;;;;;5047526;28;20107;-46
2022/07/10 10:30:21;;;;;;;3.08;1.63;;;17.20;99.90;;;;;;5048239;28;20067;-46
2022/07/10 10:32:46;;;;;;;4.05;1.30;;;17.40;99.90;;;;;;5047204;28;20043;-45
2022/07/10 10:35:42;;;;;;;3.50;1.02;;;17.60;99.90;;;;;;5047434;28;20040;-45
2022/07/10 10:38:07;;;;;;;2.15;1.10;;;17.50;99.90;;;;;;5044174;28;20072;-45
2022/07/10 10:40:33;;;;;;;2.72;1.30;;;17.20;99.90;;;;;;5044837;28;20407;-47
2022/07/10 10:43:23;;;;;;;3.75;1.40;;;17.10;99.90;;;;;;5048346;28;20163;-46
2022/07/10 10:45:49;;;;;;;6.72;1.65;;;16.80;99.90;;;;;;5044987;28;20046;-46
2022/07/10 10:48:17;;;;;;;2.15;1.75;;;16.90;99.90;;;;;;5041928;28;20037;-48
2022/07/10 10:50:49;;;;;;;;;;;16.80;99.90;;;;;;5044768;28;20045;-46
2022/07/10 10:53:16;;;;;;;2.95;1.52;;;16.50;99.90;;;;;;5047661;28;19920;-47
2022/07/10 10:56:00;;;;;;;4.47;1.88;;;16.70;99.90;;;;;;5047025;28;20052;-48
2022/07/10 10:58:27;;;;;;;2.17;1.10;;;16.90;99.90;;;;;;5046597;28;20204;-46
2022/07/10 11:01:03;;;;;;;3.83;1.45;;;17.10;99.90;;;;;;5047025;28;20045;-47
2022/07/10 11:03:28;;;;;;;3.83;1.38;;;17.40;99.90;;;;;;5046212;28;20143;-47
2022/07/10 11:05:54;;;;;;;5.28;1.60;;;17.80;99.90;;;;;;5047366;28;20140;-49
2022/07/10 11:08:37;;;;;;;4.68;1.58;;;17.80;99.90;;;;;;5047026;28;20124;-50
2022/07/10 11:11:48;;;;;;;5.30;2.00;;;17.80;99.90;;;;;;5046562;28;20041;-46
2022/07/10 11:14:14;;;;;;;4.18;1.95;;;17.70;99.90;;;;;;5042339;28;20403;-48
2022/07/10 11:16:47;;;;;;;3.95;1.70;;;17.60;99.90;;;;;;5046112;28;20033;-46
2022/07/10 11:19:13;;;;;;;3.22;2.00;;;17.70;99.90;;;;;;5045581;28;20424;-46
2022/07/10 11:21:47;;;;;;;3.35;2.03;;;17.80;99.90;;;;;;5047006;28;20052;-47
2022/07/10 11:24:28;;;;;;;3.53;2.00;;;18.20;99.90;;;;;;5043336;28;20063;-47
2022/07/10 11:27:06;;;;;;;2.70;1.65;;;18.50;99.90;;;;;;5040901;28;20080;-49
2022/07/10 11:29:37;;;;;;;7.35;2.20;;;19.10;99.90;;;;;;5040881;28;20093;-48
2022/07/10 11:32:03;;;;;;;4.35;1.60;;;19.10;99.90;;;;;;5041963;28;20049;-46
2022/07/10 11:34:36;;;;;;;4.40;1.60;;;19.50;99.90;;;;;;5041892;28;20182;-49
2022/07/10 11:37:03;;;;;;;4.10;1.90;;;19.60;99.90;;;;;;5041873;28;20072;-46
2022/07/10 11:39:28;;;;;;;5.40;2.05;;;19.90;99.90;;;;;;5040363;28;20140;-51
2022/07/10 11:41:54;;;;;;;3.25;1.10;;;20.00;99.90;;;;;;5039444;28;20047;-46
2022/07/10 11:44:20;;;;;;;4.35;1.10;;;19.90;99.90;;;;;;5039547;28;20076;-49
2022/07/10 11:46:49;;;;;;;3.73;1.30;;;20.10;99.90;;;;;;5037621;28;20063;-46
2022/07/10 11:49:15;;;;;;;1.98;1.30;;;20.00;99.90;;;;;;5041927;28;20045;-49
2022/07/10 11:51:42;;;;;;;3.40;1.40;;;19.80;99.90;;;;;;5040913;28;20083;-49
2022/07/10 11:54:15;;;;;;;3.33;1.20;;;19.60;99.90;;;;;;5041313;28;20056;-47
2022/07/10 11:56:46;;;;;;;3.75;1.50;;;19.40;99.90;;;;;;5041433;28;20479;-46
2022/07/10 11:59:13;;;;;;;3.13;1.30;;;19.00;99.90;;;;;;5043780;28;20095;-46
2022/07/10 12:01:51;;;;;;;4.90;1.70;;;18.70;99.90;;;;;;5040876;28;20754;-50
2022/07/10 12:04:19;;;;;;;4.40;1.88;;;18.50;99.90;;;;;;5037618;28;20303;-48
2022/07/10 12:06:46;;;;;;;4.55;1.77;;;18.30;99.90;;;;;;5043417;28;20039;-46
2022/07/10 12:09:18;;;;;;;4.20;1.77;;;18.30;99.90;;;;;;5042703;28;20131;-51
2022/07/10 12:11:44;;;;;;;5.90;2.08;;;18.60;99.90;;;;;;5041239;28;20527;-46
2022/07/10 12:14:16;;;;;;;3.43;2.27;;;19.00;99.90;;;;;;5044535;28;20091;-46
2022/07/10 12:16:44;;;;;;;5.43;1.83;;;19.20;99.90;;;;;;5040382;28;20582;-46
2022/07/10 12:19:31;;;;;;;4.60;1.98;;;19.60;99.90;;;;;;5042471;28;20080;-47
2022/07/10 12:21:58;;;;;;;4.60;1.45;;;19.70;99.90;;;;;;5038862;28;20118;-46
2022/07/10 12:24:24;;;;;;;4.00;1.60;;;19.60;99.90;;;;;;5039522;28;20126;-48
2022/07/10 12:26:51;;;;;;;4.53;1.30;;;19.50;99.90;;;;;;5038779;28;20586;-47
2022/07/10 12:29:25;;;;;;;3.40;1.10;;;19.20;99.90;;;;;;5037795;28;20041;-48
2022/07/10 12:32:01;;;;;;;3.67;1.40;;;18.60;99.90;;;;;;5049512;28;20041;-46
2022/07/10 12:34:46;;;;;;;5.25;1.10;;;18.40;99.90;;;;;;5050523;28;20352;-47
2022/07/10 12:37:16;;;;;;;3.60;1.30;;;18.50;99.90;;;;;;5035675;28;20042;-47
2022/07/10 12:39:53;;;;;;;3.78;1.42;;;18.90;99.90;;;;;;5048036;28;20470;-47
2022/07/10 12:42:31;;;;;;;3.40;1.17;;;19.10;99.90;;;;;;5049348;28;20144;-47
2022/07/10 12:45:13;;;;;;;2.70;1.00;;;19.50;99.90;;;;;;5049698;28;20406;-45
2022/07/10 12:47:46;;;;;;;2.17;1.02;;;19.60;99.90;;;;;;5049419;28;20120;-47
2022/07/10 12:50:12;;;;;;;1.80;1.00;;;19.50;99.90;;;;;;5049151;28;20044;-45
2022/07/10 12:52:38;;;;;;;4.75;1.35;;;19.80;99.90;;;;;;5049171;28;20140;-46
2022/07/10 12:55:09;;;;;;;3.10;1.40;;;19.70;99.90;;;;;;5040688;28;20037;-47
2022/07/10 12:57:48;;;;;;;2.17;1.20;;;19.70;99.90;;;;;;5040366;28;20049;-46
2022/07/10 13:00:16;;;;;;;3.55;1.60;;;19.60;99.90;;;;;;5050288;28;20139;-46